createdAt,value
2018-05-24T00:00:21.348Z,21.43
2018-05-24T00:02:47.151Z,21.44
2018-05-24T00:05:12.989Z,21.44
2018-05-24T00:07:38.855Z,21.44
2018-05-24T00:10:04.689Z,21.44
2018-05-24T00:12:31.532Z,21.43
2018-05-24T00:14:57.376Z,21.38
2018-05-24T00:17:23.172Z,21.39
2018-05-24T00:19:49.010Z,21.37
2018-05-24T00:22:15.667Z,21.41
2018-05-24T00:24:42.429Z,21.40
2018-05-24T00:27:08.264Z,21.32
2018-05-24T00:29:34.853Z,21.41
2018-05-24T00:32:00.692Z,21.44
2018-05-24T00:34:27.451Z,21.40
2018-05-24T00:36:53.308Z,21.35
2018-05-24T00:39:19.640Z,21.32
2018-05-24T00:41:45.449Z,21.33
2018-05-24T00:44:11.296Z,21.36
2018-05-24T00:46:37.092Z,21.38
2018-05-24T00:49:02.996Z,21.32
2018-05-24T00:51:28.801Z,21.37
2018-05-24T00:53:55.571Z,21.38
2018-05-24T00:56:22.344Z,21.29
2018-05-24T00:58:48.141Z,21.26
2018-05-24T01:01:13.942Z,21.32
2018-05-24T01:03:40.636Z,21.32
2018-05-24T01:06:06.477Z,21.39
2018-05-24T01:08:33.224Z,21.37
2018-05-24T01:10:59.056Z,21.34
2018-05-24T01:13:25.759Z,21.37
2018-05-24T01:15:51.742Z,21.33
2018-05-24T01:18:18.389Z,21.31
2018-05-24T01:20:44.184Z,21.25
2018-05-24T01:23:11.029Z,21.29
2018-05-24T01:25:37.742Z,21.33
2018-05-24T01:28:04.531Z,21.34
2018-05-24T01:30:31.236Z,21.33
2018-05-24T01:32:57.161Z,21.36
2018-05-24T01:35:22.956Z,21.33
2018-05-24T01:37:49.605Z,21.35
2018-05-24T01:40:16.376Z,21.29
2018-05-24T01:42:42.175Z,21.28
2018-05-24T01:45:08.874Z,21.23
2018-05-24T01:47:34.673Z,21.27
2018-05-24T01:50:01.456Z,21.24
2018-05-24T01:52:27.252Z,21.24
2018-05-24T01:54:53.968Z,21.23
2018-05-24T01:57:19.820Z,21.21
2018-05-24T01:59:46.475Z,21.28
2018-05-24T02:02:12.278Z,21.23
2018-05-24T02:04:38.073Z,21.22
2018-05-24T02:07:03.908Z,21.17
2018-05-24T02:09:29.708Z,21.26
2018-05-24T02:11:56.244Z,21.21
2018-05-24T02:14:22.180Z,21.26
2018-05-24T02:16:47.975Z,21.26
2018-05-24T02:19:13.773Z,21.29
2018-05-24T02:21:39.572Z,21.19
2018-05-24T02:24:05.372Z,21.17
2018-05-24T02:26:31.176Z,21.13
2018-05-24T02:28:56.971Z,21.19
2018-05-24T02:31:22.778Z,21.23
2018-05-24T02:33:48.625Z,21.18
2018-05-24T02:36:14.426Z,21.24
2018-05-24T02:38:41.107Z,21.23
2018-05-24T02:41:06.900Z,21.15
2018-05-24T02:43:33.641Z,21.18
2018-05-24T02:45:59.440Z,21.14
2018-05-24T02:48:25.240Z,21.16
2018-05-24T02:50:51.037Z,21.19
2018-05-24T02:53:16.841Z,21.18
2018-05-24T02:55:42.640Z,21.20
2018-05-24T02:58:08.444Z,21.10
2018-05-24T03:00:34.244Z,21.15
2018-05-24T03:03:00.043Z,21.25
2018-05-24T03:05:25.845Z,21.17
2018-05-24T03:07:51.636Z,21.20
2018-05-24T03:10:17.441Z,21.17
2018-05-24T03:12:43.284Z,21.15
2018-05-24T03:15:09.084Z,21.14
2018-05-24T03:17:35.549Z,21.19
2018-05-24T03:20:01.493Z,21.15
2018-05-24T03:22:27.301Z,21.16
2018-05-24T03:24:54.168Z,21.18
2018-05-24T03:27:19.965Z,21.18
2018-05-24T03:29:45.760Z,21.17
2018-05-24T03:32:11.560Z,21.17
2018-05-24T03:34:37.392Z,21.19
2018-05-24T03:37:03.240Z,21.11
2018-05-24T03:39:29.779Z,21.10
2018-05-24T03:41:56.472Z,21.20
2018-05-24T03:44:23.105Z,21.18
2018-05-24T03:46:49.524Z,21.16
2018-05-24T03:49:16.253Z,21.18
2018-05-24T03:51:42.052Z,21.16
2018-05-24T03:54:07.890Z,21.18
2018-05-24T03:56:34.541Z,21.17
2018-05-24T03:59:01.448Z,21.20
2018-05-24T04:01:33.421Z,21.18
2018-05-24T04:04:05.356Z,21.16
2018-05-24T04:06:32.085Z,21.16
2018-05-24T04:08:58.824Z,21.14
2018-05-24T04:11:25.412Z,21.13
2018-05-24T04:13:51.210Z,21.08
2018-05-24T04:16:17.943Z,21.19
2018-05-24T04:18:43.743Z,21.12
2018-05-24T04:21:09.576Z,21.14
2018-05-24T04:23:36.268Z,21.14
2018-05-24T04:26:03.016Z,21.15
2018-05-24T04:28:28.807Z,21.09
2018-05-24T04:30:54.599Z,21.14
2018-05-24T04:33:20.391Z,21.26
2018-05-24T04:35:47.102Z,21.37
2018-05-24T04:38:12.937Z,21.44
2018-05-24T04:40:39.557Z,21.53
2018-05-24T04:43:05.391Z,21.58
2018-05-24T04:45:31.998Z,21.63
2018-05-24T04:47:57.849Z,21.64
2018-05-24T04:50:23.651Z,21.71
2018-05-24T04:52:49.453Z,21.73
2018-05-24T04:55:15.248Z,21.76
2018-05-24T04:57:41.948Z,21.75
2018-05-24T05:00:08.764Z,21.71
2018-05-24T05:02:35.404Z,21.76
2018-05-24T05:05:02.205Z,21.75
2018-05-24T05:07:28.008Z,21.72
2018-05-24T05:09:53.844Z,21.73
2018-05-24T05:12:19.659Z,21.73
2018-05-24T05:14:45.505Z,21.74
2018-05-24T05:17:11.284Z,21.74
2018-05-24T05:19:37.106Z,21.75
2018-05-24T05:22:02.920Z,21.74
2018-05-24T05:24:28.789Z,21.72
2018-05-24T05:26:55.596Z,21.75
2018-05-24T05:29:21.392Z,21.74
2018-05-24T05:31:47.187Z,21.76
2018-05-24T05:34:12.985Z,21.76
2018-05-24T05:36:38.789Z,21.73
2018-05-24T05:39:04.606Z,21.71
2018-05-24T05:41:30.412Z,21.74
2018-05-24T05:43:56.228Z,21.73
2018-05-24T05:46:22.034Z,21.72
2018-05-24T05:48:48.624Z,21.75
2018-05-24T05:51:14.485Z,21.75
2018-05-24T05:53:41.117Z,21.70
2018-05-24T05:56:06.917Z,21.73
2018-05-24T05:58:32.715Z,21.73
2018-05-24T06:00:59.038Z,21.73
2018-05-24T06:03:24.832Z,21.69
2018-05-24T06:05:50.731Z,21.69
2018-05-24T06:08:17.482Z,21.66
2018-05-24T06:10:43.286Z,21.68
2018-05-24T06:13:09.089Z,21.70
2018-05-24T06:15:35.900Z,21.70
2018-05-24T06:18:01.712Z,21.70
2018-05-24T06:20:27.516Z,21.64
2018-05-24T06:22:53.316Z,21.66
2018-05-24T06:25:19.130Z,21.63
2018-05-24T06:27:45.944Z,21.65
2018-05-24T06:30:11.740Z,21.65
2018-05-24T06:32:37.537Z,21.65
2018-05-24T06:35:03.377Z,21.64
2018-05-24T06:37:29.185Z,21.63
2018-05-24T06:39:55.993Z,21.52
2018-05-24T06:42:21.803Z,21.51
2018-05-24T06:44:47.597Z,21.59
2018-05-24T06:47:13.437Z,21.56
2018-05-24T06:49:40.096Z,21.52
2018-05-24T06:52:05.941Z,21.57
2018-05-24T06:54:31.788Z,21.53
2018-05-24T06:56:58.469Z,21.54
2018-05-24T06:59:24.365Z,21.56
2018-05-24T07:01:51.109Z,21.55
2018-05-24T07:04:20.856Z,21.52
2018-05-24T07:06:47.607Z,21.53
2018-05-24T07:09:13.441Z,21.55
2018-05-24T07:11:40.181Z,21.54
2018-05-24T07:14:05.980Z,21.52
2018-05-24T07:16:32.612Z,21.51
2018-05-24T07:18:58.413Z,21.51
2018-05-24T07:21:24.258Z,21.53
2018-05-24T07:23:50.067Z,21.56
2018-05-24T07:26:16.809Z,21.52
2018-05-24T07:28:42.734Z,21.48
2018-05-24T07:31:09.377Z,21.50
2018-05-24T07:33:36.116Z,21.49
2018-05-24T07:36:02.789Z,21.53
2018-05-24T07:38:29.401Z,21.50
2018-05-24T07:40:55.196Z,21.47
2018-05-24T07:43:20.995Z,21.45
2018-05-24T07:45:47.712Z,21.47
2018-05-24T07:48:14.356Z,21.50
2018-05-24T07:50:40.206Z,21.50
2018-05-24T07:53:06.049Z,21.48
2018-05-24T07:55:31.917Z,21.45
2018-05-24T07:57:57.776Z,21.46
2018-05-24T08:00:23.573Z,21.48
2018-05-24T08:02:50.366Z,21.64
2018-05-24T08:05:16.209Z,21.71
2018-05-24T08:07:42.854Z,21.84
2018-05-24T08:10:09.636Z,21.85
2018-05-24T08:12:35.549Z,21.96
2018-05-24T08:15:01.601Z,22.00
2018-05-24T08:17:28.188Z,22.02
2018-05-24T08:19:54.032Z,22.04
2018-05-24T08:22:20.824Z,22.04
2018-05-24T08:24:46.647Z,22.05
2018-05-24T08:27:13.429Z,22.04
2018-05-24T08:29:40.227Z,22.03
2018-05-24T08:32:07.009Z,22.01
2018-05-24T08:34:32.816Z,22.04
2018-05-24T08:36:59.725Z,22.03
2018-05-24T08:39:25.529Z,22.00
2018-05-24T08:41:52.384Z,22.01
2018-05-24T08:44:18.184Z,22.01
2018-05-24T08:46:44.988Z,21.98
2018-05-24T08:49:11.704Z,21.99
2018-05-24T08:51:37.525Z,22.02
2018-05-24T08:54:03.326Z,22.01
2018-05-24T08:56:30.002Z,22.00
2018-05-24T08:58:56.708Z,21.95
2018-05-24T09:01:22.632Z,21.99
2018-05-24T09:03:48.413Z,21.99
2018-05-24T09:06:14.370Z,21.96
2018-05-24T09:08:40.992Z,21.98
2018-05-24T09:11:06.788Z,21.96
2018-05-24T09:13:32.588Z,21.94
2018-05-24T09:15:58.388Z,21.95
2018-05-24T09:18:24.188Z,21.94
2018-05-24T09:20:49.992Z,21.95
2018-05-24T09:23:15.793Z,21.94
2018-05-24T09:25:41.584Z,21.92
2018-05-24T09:28:07.380Z,21.92
2018-05-24T09:30:34.196Z,21.92
2018-05-24T09:33:00.008Z,21.87
2018-05-24T09:35:26.510Z,21.91
2018-05-24T09:37:52.490Z,21.87
2018-05-24T09:40:18.407Z,21.90
2018-05-24T09:42:44.216Z,21.91
2018-05-24T09:45:10.012Z,21.90
2018-05-24T09:47:35.820Z,21.96
2018-05-24T09:50:01.658Z,21.87
2018-05-24T09:52:27.614Z,21.92
2018-05-24T09:54:53.417Z,21.90
2018-05-24T09:57:19.260Z,21.87
2018-05-24T09:59:45.171Z,21.83
2018-05-24T10:02:11.020Z,21.88
2018-05-24T10:04:36.830Z,21.91
2018-05-24T10:07:02.734Z,21.89
2018-05-24T10:09:28.568Z,21.89
2018-05-24T10:11:54.366Z,21.86
2018-05-24T10:14:20.190Z,21.89
2018-05-24T10:16:45.993Z,21.86
2018-05-24T10:19:11.793Z,21.85
2018-05-24T10:21:37.600Z,21.87
2018-05-24T10:24:03.405Z,21.84
2018-05-24T10:26:29.216Z,21.83
2018-05-24T10:28:55.064Z,21.88
2018-05-24T10:31:21.736Z,21.84
2018-05-24T10:33:48.520Z,21.86
2018-05-24T10:36:15.329Z,21.86
2018-05-24T10:38:42.470Z,21.84
2018-05-24T10:41:08.349Z,21.82
2018-05-24T10:43:35.116Z,21.84
2018-05-24T10:46:00.919Z,21.80
2018-05-24T10:48:26.757Z,21.83
2018-05-24T10:50:53.474Z,21.77
2018-05-24T10:53:20.316Z,21.75
2018-05-24T10:55:47.065Z,21.78
2018-05-24T10:58:13.178Z,21.80
2018-05-24T11:00:38.978Z,21.74
2018-05-24T11:03:05.648Z,21.79
2018-05-24T11:05:31.423Z,21.78
2018-05-24T11:07:58.073Z,21.80
2018-05-24T11:10:23.873Z,21.74
2018-05-24T11:12:50.661Z,21.80
2018-05-24T11:15:17.389Z,21.77
2018-05-24T11:17:43.232Z,21.78
2018-05-24T11:20:09.074Z,21.78
2018-05-24T11:22:34.908Z,21.76
2018-05-24T11:25:00.708Z,21.78
2018-05-24T11:27:27.465Z,21.77
2018-05-24T11:29:53.281Z,21.78
2018-05-24T11:32:20.037Z,21.73
2018-05-24T11:34:45.836Z,21.73
2018-05-24T11:37:11.756Z,21.80
2018-05-24T11:39:37.516Z,21.73
2018-05-24T11:42:03.361Z,21.76
2018-05-24T11:44:30.126Z,21.73
2018-05-24T11:46:56.075Z,21.78
2018-05-24T11:49:21.881Z,21.79
2018-05-24T11:51:47.687Z,21.77
2018-05-24T11:54:13.554Z,21.78
2018-05-24T11:56:39.357Z,21.72
2018-05-24T11:59:05.165Z,21.76
2018-05-24T12:01:31.965Z,21.73
2018-05-24T12:03:57.774Z,21.72
2018-05-24T12:06:23.577Z,21.76
2018-05-24T12:08:50.177Z,21.77
2018-05-24T12:11:16.959Z,21.75
2018-05-24T12:13:42.762Z,21.75
2018-05-24T12:16:08.623Z,21.75
2018-05-24T12:18:35.428Z,21.73
2018-05-24T12:21:01.236Z,21.77
2018-05-24T12:23:28.043Z,21.77
2018-05-24T12:25:53.853Z,21.73
2018-05-24T12:28:20.477Z,21.77
2018-05-24T12:30:47.190Z,21.72
2018-05-24T12:33:14.056Z,21.69
2018-05-24T12:35:39.946Z,21.72
2018-05-24T12:38:06.541Z,21.70
2018-05-24T12:40:33.152Z,21.73
2018-05-24T12:43:00.065Z,21.63
2018-05-24T12:45:25.835Z,21.69
2018-05-24T12:47:51.636Z,21.70
2018-05-24T12:50:18.398Z,21.74
2018-05-24T12:52:44.204Z,21.71
2018-05-24T12:55:10.005Z,21.70
2018-05-24T12:57:35.808Z,21.71
2018-05-24T13:00:01.627Z,21.65
2018-05-24T13:02:27.440Z,21.74
2018-05-24T13:04:53.282Z,21.67
2018-05-24T13:07:20.037Z,21.70
2018-05-24T13:09:45.860Z,21.70
2018-05-24T13:12:12.503Z,21.65
2018-05-24T13:14:38.304Z,21.65
2018-05-24T13:17:05.204Z,21.67
2018-05-24T13:19:30.972Z,21.69
2018-05-24T13:21:56.821Z,21.69
2018-05-24T13:24:22.659Z,21.68
2018-05-24T13:26:48.460Z,21.69
2018-05-24T13:29:14.265Z,21.66
2018-05-24T13:31:40.069Z,21.67
2018-05-24T13:34:05.920Z,21.68
2018-05-24T13:36:31.725Z,21.71
2018-05-24T13:38:57.520Z,21.70
2018-05-24T13:41:24.198Z,21.59
2018-05-24T13:43:50.001Z,21.68
2018-05-24T13:46:15.812Z,21.65
2018-05-24T13:48:41.661Z,21.66
2018-05-24T13:51:07.580Z,21.64
2018-05-24T13:53:33.379Z,21.70
2018-05-24T13:55:59.186Z,21.65
2018-05-24T13:58:24.988Z,21.65
2018-05-24T14:00:50.932Z,21.74
2018-05-24T14:03:16.737Z,21.68
2018-05-24T14:05:42.545Z,21.63
2018-05-24T14:08:08.421Z,21.70
2018-05-24T14:10:34.219Z,21.67
2018-05-24T14:13:01.040Z,21.66
2018-05-24T14:15:26.839Z,21.61
2018-05-24T14:17:53.601Z,21.61
2018-05-24T14:20:20.336Z,21.66
2018-05-24T14:22:46.140Z,21.71
2018-05-24T14:25:12.924Z,21.71
2018-05-24T14:27:38.768Z,21.73
2018-05-24T14:30:05.532Z,21.69
2018-05-24T14:32:31.334Z,21.66
2018-05-24T14:34:58.128Z,21.68
2018-05-24T14:37:24.878Z,21.63
2018-05-24T14:39:51.684Z,21.67
2018-05-24T14:42:18.513Z,21.60
2018-05-24T14:44:45.344Z,21.68
2018-05-24T14:47:11.656Z,21.65
2018-05-24T14:49:38.519Z,21.67
2018-05-24T14:52:05.338Z,21.69
2018-05-24T14:54:31.256Z,21.60
2018-05-24T14:56:57.069Z,21.65
2018-05-24T14:59:22.901Z,21.68
2018-05-24T15:01:48.706Z,21.63
2018-05-24T15:04:14.571Z,21.68
2018-05-24T15:06:40.372Z,21.62
2018-05-24T15:09:06.169Z,21.65
2018-05-24T15:11:31.978Z,21.71
2018-05-24T15:13:58.653Z,21.63
2018-05-24T15:16:24.497Z,21.58
2018-05-24T15:18:51.132Z,21.64
2018-05-24T15:21:16.972Z,21.56
2018-05-24T15:23:43.693Z,21.63
2018-05-24T15:26:09.502Z,21.65
2018-05-24T15:28:36.276Z,21.69
2018-05-24T15:31:02.076Z,21.67
2018-05-24T15:33:27.923Z,21.67
2018-05-24T15:35:53.704Z,21.67
2018-05-24T15:38:19.508Z,21.57
2018-05-24T15:40:45.361Z,21.65
2018-05-24T15:43:11.153Z,21.56
2018-05-24T15:45:37.856Z,21.68
2018-05-24T15:48:04.632Z,21.59
2018-05-24T15:50:30.541Z,21.66
2018-05-24T15:52:56.345Z,21.58
2018-05-24T15:55:22.149Z,21.64
2018-05-24T15:57:47.952Z,21.64
2018-05-24T16:00:13.753Z,21.59
2018-05-24T16:02:40.684Z,21.62
2018-05-24T16:05:07.305Z,21.56
2018-05-24T16:07:34.045Z,21.54
2018-05-24T16:09:59.849Z,21.63
2018-05-24T16:12:25.653Z,21.62
2018-05-24T16:14:51.461Z,21.60
2018-05-24T16:17:17.267Z,21.60
2018-05-24T16:19:43.144Z,21.68
2018-05-24T16:22:08.952Z,21.57
2018-05-24T16:24:34.796Z,21.59
2018-05-24T16:27:00.637Z,21.63
2018-05-24T16:29:27.314Z,21.58
2018-05-24T16:31:54.105Z,21.61
2018-05-24T16:34:21.046Z,21.56
2018-05-24T16:36:46.879Z,21.51
2018-05-24T16:39:12.704Z,21.57
2018-05-24T16:41:38.508Z,21.55
2018-05-24T16:44:04.325Z,21.56
2018-05-24T16:46:30.169Z,21.50
2018-05-24T16:48:56.097Z,21.53
2018-05-24T16:51:21.936Z,21.56
2018-05-24T16:53:47.784Z,21.55
2018-05-24T16:56:13.584Z,21.55
2018-05-24T16:58:39.437Z,21.60
2018-05-24T17:01:05.237Z,21.58
2018-05-24T17:03:31.042Z,21.67
2018-05-24T17:05:56.848Z,21.62
2018-05-24T17:08:22.653Z,21.57
2018-05-24T17:10:48.458Z,21.54
2018-05-24T17:13:14.261Z,21.62
2018-05-24T17:15:40.065Z,21.52
2018-05-24T17:18:05.867Z,21.56
2018-05-24T17:20:31.689Z,21.48
2018-05-24T17:22:57.492Z,21.51
2018-05-24T17:25:23.291Z,21.48
2018-05-24T17:27:49.101Z,21.49
2018-05-24T17:30:14.993Z,21.50
2018-05-24T17:32:41.725Z,21.46
2018-05-24T17:35:07.524Z,21.45
2018-05-24T17:37:33.517Z,21.46
2018-05-24T17:39:59.396Z,21.49
2018-05-24T17:42:25.209Z,21.54
2018-05-24T17:44:51.013Z,21.50
2018-05-24T17:47:17.829Z,21.51
2018-05-24T17:49:43.630Z,21.49
2018-05-24T17:52:09.428Z,21.51
2018-05-24T17:54:35.228Z,21.49
2018-05-24T17:57:01.148Z,21.48
2018-05-24T17:59:26.952Z,21.47
2018-05-24T18:01:52.768Z,21.50
2018-05-24T18:04:18.589Z,21.49
2018-05-24T18:06:44.389Z,21.42
2018-05-24T18:09:10.193Z,21.44
2018-05-24T18:11:36.028Z,21.48
2018-05-24T18:14:01.839Z,21.44
2018-05-24T18:16:27.643Z,21.48
2018-05-24T18:18:53.465Z,21.47
2018-05-24T18:24:11.865Z,21.36
2018-05-24T18:26:37.781Z,21.41
2018-05-24T18:29:03.687Z,21.49
2018-05-24T18:31:29.516Z,21.43
2018-05-24T18:33:56.517Z,21.45
2018-05-24T18:36:22.329Z,21.42
2018-05-24T18:38:48.137Z,21.47
2018-05-24T18:41:14.897Z,21.43
2018-05-24T18:43:40.708Z,21.44
2018-05-24T18:46:07.297Z,21.51
2018-05-24T18:48:33.105Z,21.44
2018-05-24T18:50:58.958Z,21.44
2018-05-24T18:53:24.817Z,21.46
2018-05-24T18:55:50.812Z,21.45
2018-05-24T18:58:17.926Z,21.47
2018-05-24T19:00:44.558Z,21.47
2018-05-24T19:03:10.553Z,21.45
2018-05-24T19:05:36.356Z,21.47
2018-05-24T19:08:02.189Z,21.49
2018-05-24T19:10:28.014Z,21.44
2018-05-24T19:12:54.169Z,21.49
2018-05-24T19:15:20.793Z,21.44
2018-05-24T19:17:47.532Z,21.51
2018-05-24T19:20:13.440Z,21.61
2018-05-24T19:22:39.292Z,21.72
2018-05-24T19:25:05.100Z,21.84
2018-05-24T19:27:30.913Z,21.94
2018-05-24T19:29:56.725Z,21.99
2018-05-24T19:32:22.537Z,22.02
2018-05-24T19:34:48.397Z,22.06
2018-05-24T19:37:15.052Z,22.07
2018-05-24T19:39:40.857Z,22.08
2018-05-24T19:42:06.665Z,22.09
2018-05-24T19:44:32.488Z,22.08
2018-05-24T19:46:58.294Z,22.10
2018-05-24T19:49:24.113Z,22.10
2018-05-24T19:51:49.917Z,22.09
2018-05-24T19:54:15.727Z,22.08
2018-05-24T19:56:42.348Z,22.08
2018-05-24T19:59:09.124Z,22.07
2018-05-24T20:01:35.080Z,22.06
2018-05-24T20:04:01.002Z,22.05
2018-05-24T20:06:26.809Z,22.05
2018-05-24T20:08:52.617Z,22.06
2018-05-24T20:11:18.430Z,22.05
2018-05-24T20:13:44.441Z,22.06
2018-05-24T20:16:10.249Z,22.07
2018-05-24T20:18:36.135Z,22.06
2018-05-24T20:21:03.084Z,22.06
2018-05-24T20:23:29.837Z,22.03
2018-05-24T20:25:55.645Z,22.03
2018-05-24T20:28:21.487Z,22.01
2018-05-24T20:30:48.299Z,22.02
2018-05-24T20:33:15.132Z,22.01
2018-05-24T20:35:40.988Z,22.01
2018-05-24T20:38:06.797Z,22.01
2018-05-24T20:40:32.705Z,22.02
2018-05-24T20:42:58.512Z,22.00
2018-05-24T20:45:24.311Z,22.00
2018-05-24T20:47:50.119Z,21.98
2018-05-24T20:50:15.932Z,21.98
2018-05-24T20:52:41.772Z,21.99
2018-05-24T20:55:07.577Z,21.97
2018-05-24T20:57:34.347Z,21.98
2018-05-24T21:00:00.160Z,21.96
2018-05-24T21:02:26.002Z,21.97
2018-05-24T21:04:51.807Z,21.96
2018-05-24T21:07:17.615Z,21.94
2018-05-24T21:09:44.309Z,21.94
2018-05-24T21:12:10.128Z,21.93
2018-05-24T21:14:35.940Z,21.95
2018-05-24T21:17:01.745Z,21.94
2018-05-24T21:19:28.363Z,21.91
2018-05-24T21:21:55.153Z,21.94
2018-05-24T21:24:22.116Z,21.94
2018-05-24T21:26:48.853Z,21.93
2018-05-24T21:29:14.680Z,21.89
2018-05-24T21:31:41.288Z,21.91
2018-05-24T21:34:07.096Z,21.91
2018-05-24T21:36:32.900Z,21.89
2018-05-24T21:38:58.701Z,21.89
2018-05-24T21:41:25.352Z,21.87
2018-05-24T21:43:51.158Z,21.89
2018-05-24T21:46:17.065Z,21.89
2018-05-24T21:48:43.780Z,21.89
2018-05-24T21:51:09.629Z,21.87
2018-05-24T21:53:35.548Z,21.87
2018-05-24T21:56:01.354Z,21.89
2018-05-24T21:58:28.043Z,21.87
2018-05-24T22:00:53.947Z,21.88
2018-05-24T22:03:19.760Z,21.85
2018-05-24T22:05:45.568Z,21.86
2018-05-24T22:08:11.424Z,21.86
2018-05-24T22:10:37.413Z,21.87
2018-05-24T22:13:03.224Z,21.88
2018-05-24T22:15:29.029Z,21.86
2018-05-24T22:17:54.881Z,21.84
2018-05-24T22:20:20.688Z,21.85
2018-05-24T22:22:46.619Z,21.83
2018-05-24T22:25:12.458Z,21.83
2018-05-24T22:27:38.271Z,21.87
2018-05-24T22:30:04.076Z,21.86
2018-05-24T22:32:29.881Z,21.87
2018-05-24T22:34:55.712Z,21.84
2018-05-24T22:37:21.521Z,21.82
2018-05-24T22:39:47.358Z,21.86
2018-05-24T22:42:13.192Z,21.84
2018-05-24T22:44:38.996Z,21.83
2018-05-24T22:47:04.824Z,21.78
2018-05-24T22:49:31.424Z,21.77
2018-05-24T22:51:58.235Z,21.78
2018-05-24T22:54:24.884Z,21.79
2018-05-24T22:56:51.503Z,21.79
2018-05-24T22:59:17.436Z,21.81
2018-05-24T23:01:44.169Z,21.77
2018-05-24T23:04:10.046Z,21.78
2018-05-24T23:06:35.854Z,21.81
2018-05-24T23:09:01.701Z,21.76
2018-05-24T23:11:27.661Z,21.75
2018-05-24T23:13:53.505Z,21.77
2018-05-24T23:16:19.405Z,21.75
2018-05-24T23:18:46.183Z,21.73
2018-05-24T23:21:12.073Z,21.73
2018-05-24T23:23:39.395Z,21.74
2018-05-24T23:26:06.321Z,21.68
2018-05-24T23:28:33.103Z,21.74
2018-05-24T23:30:58.905Z,21.69
2018-05-24T23:33:25.891Z,21.74
2018-05-24T23:35:51.708Z,21.73
2018-05-24T23:38:17.546Z,21.75
2018-05-24T23:40:44.379Z,21.76
2018-05-24T23:43:10.194Z,21.74
2018-05-24T23:45:36.110Z,21.75
2018-05-24T23:48:01.956Z,21.74
2018-05-24T23:50:27.873Z,21.72
2018-05-24T23:52:53.676Z,21.68
2018-05-24T23:55:19.488Z,21.73
2018-05-24T23:57:45.296Z,21.71
